Time,TemperatureF,DewpointF,PressureIn,WindDirection,WindDirectionDegrees,WindSpeedMPH,WindSpeedGustMPH,Humidity,HourlyPrecipIn,Conditions,Clouds,dailyrainin,SoftwareType,DateUTC
2013-06-18 00:02:00,62.0,51.0,29.74,NE,34,1.0,3.0,66,0.00,,,0.00,,2013-06-18 07:02:00,
2013-06-18 00:12:00,61.0,51.0,29.75,WNW,293,0.0,4.0,69,0.00,,,0.00,,2013-06-18 07:12:00,
2013-06-18 00:22:00,62.0,50.0,29.77,NE,51,1.0,6.0,64,0.00,,,0.00,,2013-06-18 07:22:00,
2013-06-18 00:33:00,61.0,53.0,29.75,West,274,2.0,4.0,75,0.04,,,0.04,,2013-06-18 07:33:00,
2013-06-18 00:42:00,61.0,53.0,29.75,West,274,2.0,4.0,75,0.04,,,0.04,,2013-06-18 07:42:00,
2013-06-18 00:53:00,57.0,52.0,29.73,WNW,303,0.0,3.0,84,0.04,,,0.04,,2013-06-18 07:53:00,
2013-06-18 01:01:00,57.0,52.0,29.73,WNW,303,0.0,3.0,84,0.04,,,0.04,,2013-06-18 08:01:00,
2013-06-18 01:11:00,58.0,54.0,29.73,NW,310,0.0,6.0,85,0.04,,,0.04,,2013-06-18 08:11:00,
2013-06-18 01:22:00,59.0,54.0,29.78,SW,224,1.0,6.0,82,0.05,,,0.05,,2013-06-18 08:22:00,
2013-06-18 01:32:00,59.0,54.0,29.78,SW,224,1.0,6.0,82,0.05,,,0.05,,2013-06-18 08:32:00,
2013-06-18 01:43:00,60.0,52.0,29.79,SW,222,2.0,8.0,74,0.03,,,0.07,,2013-06-18 08:43:00,
2013-06-18 01:52:00,59.0,52.0,29.77,ENE,68,0.0,3.0,78,0.04,,,0.08,,2013-06-18 08:52:00,
2013-06-18 02:01:00,58.0,52.0,29.77,NE,36,2.0,5.0,81,0.04,,,0.08,,2013-06-18 09:01:00,
2013-06-18 02:11:00,58.0,52.0,29.77,NE,36,2.0,5.0,81,0.04,,,0.08,,2013-06-18 09:11:00,
2013-06-18 02:21:00,56.0,52.0,29.74,WNW,287,1.0,3.0,85,0.03,,,0.08,,2013-06-18 09:21:00,
2013-06-18 02:33:00,56.0,52.0,29.74,WNW,287,1.0,3.0,85,0.03,,,0.08,,2013-06-18 09:33:00,
2013-06-18 02:42:00,56.0,52.0,29.74,NW,326,0.0,6.0,85,0.01,,,0.08,,2013-06-18 09:42:00,
2013-06-18 02:53:00,57.0,53.0,29.76,NE,53,1.0,3.0,85,0.00,,,0.08,,2013-06-18 09:53:00,
2013-06-18 03:01:00,57.0,53.0,29.76,NE,53,1.0,3.0,85,0.00,,,0.08,,2013-06-18 10:01:00,
2013-06-18 03:11:00,56.0,52.0,29.77,WSW,241,1.0,3.0,87,0.01,,,0.09,,2013-06-18 10:11:00,
2013-06-18 03:22:00,56.0,53.0,29.78,WNW,289,2.0,5.0,89,0.04,,,0.12,,2013-06-18 10:22:00,
2013-06-18 03:33:00,56.0,53.0,29.78,WNW,289,2.0,5.0,89,0.04,,,0.12,,2013-06-18 10:33:00,
2013-06-18 03:43:00,55.0,53.0,29.77,West,276,2.0,3.0,92,0.09,,,0.17,,2013-06-18 10:43:00,
2013-06-18 03:53:00,55.0,53.0,29.77,West,276,2.0,3.0,92,0.09,,,0.17,,2013-06-18 10:53:00,
2013-06-18 04:02:00,55.0,53.0,29.77,NNW,333,1.0,4.0,94,0.12,,,0.20,,2013-06-18 11:02:00,
2013-06-18 04:11:00,54.0,53.0,29.77,West,272,2.0,4.0,95,0.19,,,0.28,,2013-06-18 11:11:00,
2013-06-18 04:22:00,55.0,54.0,29.76,North,2,2.0,4.0,95,0.15,,,0.28,,2013-06-18 11:22:00,
2013-06-18 04:32:00,55.0,54.0,29.76,North,2,2.0,4.0,95,0.15,,,0.28,,2013-06-18 11:32:00,
2013-06-18 04:42:00,54.0,53.0,29.77,West,281,1.0,3.0,96,0.10,,,0.28,,2013-06-18 11:42:00,
2013-06-18 04:52:00,54.0,53.0,29.77,West,281,1.0,3.0,96,0.10,,,0.28,,2013-06-18 11:52:00,
2013-06-18 05:01:00,54.0,53.0,29.77,West,281,1.0,3.0,96,0.10,,,0.28,,2013-06-18 12:01:00,
2013-06-18 05:11:00,54.0,53.0,29.78,SE,128,1.0,3.0,96,0.01,,,0.28,,2013-06-18 12:11:00,
2013-06-18 05:22:00,54.0,53.0,29.80,WSW,248,2.0,3.0,97,0.01,,,0.28,,2013-06-18 12:22:00,
2013-06-18 05:32:00,54.0,53.0,29.80,WSW,248,2.0,3.0,97,0.01,,,0.28,,2013-06-18 12:32:00,
2013-06-18 05:42:00,54.0,53.0,29.78,West,276,0.0,2.0,97,0.03,,,0.31,,2013-06-18 12:42:00,
2013-06-18 05:52:00,54.0,53.0,29.78,West,276,0.0,2.0,97,0.03,,,0.31,,2013-06-18 12:52:00,
2013-06-18 06:01:00,54.0,53.0,29.78,WNW,287,3.0,5.0,97,0.04,,,0.32,,2013-06-18 13:01:00,
2013-06-18 06:11:00,54.0,53.0,29.78,NW,320,0.0,1.0,97,0.03,,,0.32,,2013-06-18 13:11:00,
2013-06-18 06:22:00,54.0,53.0,29.78,NW,323,0.0,1.0,97,0.03,,,0.32,,2013-06-18 13:22:00,
2013-06-18 06:33:00,54.0,53.0,29.78,NW,323,0.0,1.0,97,0.03,,,0.32,,2013-06-18 13:33:00,
2013-06-18 06:43:00,54.0,53.0,29.78,NNE,30,1.0,4.0,97,0.01,,,0.32,,2013-06-18 13:43:00,
2013-06-18 06:52:00,54.0,53.0,29.78,NNE,30,1.0,4.0,97,0.01,,,0.32,,2013-06-18 13:52:00,
2013-06-18 07:02:00,54.0,53.0,29.78,NNW,333,0.0,1.0,98,0.00,,,0.32,,2013-06-18 14:02:00,
2013-06-18 07:11:00,55.0,54.0,29.78,WSW,240,0.0,3.0,97,0.00,,,0.32,,2013-06-18 14:11:00,
2013-06-18 07:22:00,56.0,55.0,29.78,SW,219,2.0,3.0,97,0.00,,,0.32,,2013-06-18 14:22:00,
2013-06-18 07:33:00,56.0,55.0,29.78,SW,219,2.0,3.0,97,0.00,,,0.32,,2013-06-18 14:33:00,
2013-06-18 07:43:00,56.0,55.0,29.79,SW,229,0.0,0.0,96,0.00,,,0.32,,2013-06-18 14:43:00,
2013-06-18 07:52:00,56.0,55.0,29.79,SW,229,0.0,0.0,96,0.00,,,0.32,,2013-06-18 14:52:00,
2013-06-18 08:01:00,56.0,55.0,29.79,WNW,287,0.0,1.0,96,0.00,,,0.32,,2013-06-18 15:01:00,
2013-06-18 08:11:00,56.0,55.0,29.79,NNW,334,0.0,1.0,97,0.00,,,0.32,,2013-06-18 15:11:00,
2013-06-18 08:22:00,56.0,55.0,29.78,NNE,27,1.0,2.0,97,0.00,,,0.32,,2013-06-18 15:22:00,
2013-06-18 08:33:00,56.0,55.0,29.78,NNE,27,1.0,2.0,97,0.00,,,0.32,,2013-06-18 15:33:00,
2013-06-18 08:42:00,56.0,55.0,29.79,NNW,339,0.0,1.0,97,0.00,,,0.32,,2013-06-18 15:42:00,
2013-06-18 08:52:00,56.0,55.0,29.79,NNW,339,0.0,1.0,97,0.00,,,0.32,,2013-06-18 15:52:00,
2013-06-18 09:01:00,56.0,55.0,29.79,WSW,254,1.0,3.0,96,0.00,,,0.32,,2013-06-18 16:01:00,
2013-06-18 09:11:00,56.0,55.0,29.78,East,80,1.0,4.0,95,0.00,,,0.32,,2013-06-18 16:11:00,
2013-06-18 09:22:00,56.0,55.0,29.78,East,80,1.0,4.0,95,0.00,,,0.32,,2013-06-18 16:22:00,
2013-06-18 09:33:00,56.0,55.0,29.78,East,80,1.0,4.0,95,0.00,,,0.32,,2013-06-18 16:33:00,
2013-06-18 09:43:00,57.0,55.0,29.78,NE,50,3.0,6.0,94,0.00,,,0.32,,2013-06-18 16:43:00,
2013-06-18 09:52:00,57.0,55.0,29.78,NE,50,3.0,6.0,94,0.00,,,0.32,,2013-06-18 16:52:00,
2013-06-18 10:02:00,57.0,56.0,29.76,NNW,345,0.0,3.0,95,0.00,,,0.32,,2013-06-18 17:02:00,
2013-06-18 10:11:00,58.0,56.0,29.76,North,357,1.0,3.0,94,0.00,,,0.32,,2013-06-18 17:11:00,
2013-06-18 10:22:00,58.0,55.0,29.77,WNW,285,0.0,2.0,91,0.00,,,0.32,,2013-06-18 17:22:00,
2013-06-18 10:33:00,58.0,55.0,29.77,WNW,285,0.0,2.0,91,0.00,,,0.32,,2013-06-18 17:33:00,
2013-06-18 10:43:00,58.0,56.0,29.76,North,355,1.0,4.0,92,0.00,,,0.32,,2013-06-18 17:43:00,
2013-06-18 10:53:00,58.0,55.0,29.75,ENE,57,2.0,4.0,90,0.00,,,0.32,,2013-06-18 17:53:00,
2013-06-18 11:01:00,58.0,55.0,29.75,ENE,57,2.0,4.0,90,0.00,,,0.32,,2013-06-18 18:01:00,
2013-06-18 11:11:00,59.0,55.0,29.77,SW,230,0.0,2.0,87,0.00,,,0.32,,2013-06-18 18:11:00,
2013-06-18 11:22:00,60.0,56.0,29.77,NNE,33,1.0,3.0,86,0.00,,,0.32,,2013-06-18 18:22:00,
2013-06-18 11:33:00,60.0,56.0,29.77,NNE,33,1.0,3.0,86,0.00,,,0.32,,2013-06-18 18:33:00,
2013-06-18 11:42:00,60.0,56.0,29.76,NE,35,0.0,2.0,86,0.00,,,0.32,,2013-06-18 18:42:00,
2013-06-18 11:53:00,60.0,55.0,29.76,NNW,336,0.0,1.0,83,0.00,,,0.32,,2013-06-18 18:53:00,
2013-06-18 12:01:00,60.0,55.0,29.76,NNW,336,0.0,1.0,83,0.00,,,0.32,,2013-06-18 19:01:00,
2013-06-18 12:11:00,61.0,54.0,29.76,SW,233,1.0,3.0,79,0.00,,,0.32,,2013-06-18 19:11:00,
2013-06-18 12:22:00,62.0,56.0,29.76,West,267,0.0,4.0,81,0.00,,,0.32,,2013-06-18 19:22:00,
2013-06-18 12:33:00,62.0,56.0,29.76,West,267,0.0,4.0,81,0.00,,,0.32,,2013-06-18 19:33:00,
2013-06-18 12:42:00,62.0,55.0,29.75,SW,214,4.0,8.0,79,0.00,,,0.32,,2013-06-18 19:42:00,
2013-06-18 12:52:00,62.0,55.0,29.75,SW,214,4.0,8.0,79,0.00,,,0.32,,2013-06-18 19:52:00,
2013-06-18 13:01:00,63.0,56.0,29.76,WNW,291,3.0,6.0,77,0.00,,,0.32,,2013-06-18 20:01:00,
2013-06-18 13:11:00,63.0,56.0,29.75,WSW,242,5.0,10.0,79,0.00,,,0.32,,2013-06-18 20:11:00,
2013-06-18 13:22:00,62.0,55.0,29.76,SW,231,7.0,13.0,77,0.00,,,0.32,,2013-06-18 20:22:00,
2013-06-18 13:33:00,62.0,55.0,29.76,SW,231,7.0,13.0,77,0.00,,,0.32,,2013-06-18 20:33:00,
2013-06-18 13:43:00,61.0,55.0,29.75,WSW,253,8.0,13.0,80,0.00,,,0.32,,2013-06-18 20:43:00,
2013-06-18 13:52:00,61.0,55.0,29.75,WSW,253,8.0,13.0,80,0.00,,,0.32,,2013-06-18 20:52:00,
2013-06-18 14:01:00,62.0,55.0,29.75,SSW,208,4.0,10.0,79,0.00,,,0.32,,2013-06-18 21:01:00,
2013-06-18 14:11:00,62.0,54.0,29.75,NNW,335,5.0,11.0,74,0.00,,,0.32,,2013-06-18 21:11:00,
2013-06-18 14:22:00,62.0,53.0,29.75,WNW,294,3.0,10.0,73,0.00,,,0.32,,2013-06-18 21:22:00,
2013-06-18 14:33:00,62.0,53.0,29.75,WNW,294,3.0,10.0,73,0.00,,,0.32,,2013-06-18 21:33:00,
2013-06-18 14:43:00,64.0,54.0,29.75,WSW,239,1.0,9.0,71,0.00,,,0.32,,2013-06-18 21:43:00,
2013-06-18 14:52:00,64.0,51.0,29.75,SW,220,3.0,7.0,63,0.00,,,0.32,,2013-06-18 21:52:00,
2013-06-18 15:01:00,64.0,51.0,29.75,SW,220,3.0,7.0,63,0.00,,,0.32,,2013-06-18 22:01:00,
2013-06-18 15:11:00,64.0,52.0,29.74,WSW,253,3.0,8.0,64,0.00,,,0.32,,2013-06-18 22:11:00,
2013-06-18 15:22:00,65.0,54.0,29.74,West,273,1.0,7.0,67,0.00,,,0.32,,2013-06-18 22:22:00,
2013-06-18 15:34:00,65.0,54.0,29.74,West,273,1.0,7.0,67,0.00,,,0.32,,2013-06-18 22:34:00,
2013-06-18 15:42:00,65.0,52.0,29.74,NE,49,2.0,4.0,63,0.00,,,0.32,,2013-06-18 22:42:00,
2013-06-18 15:53:00,65.0,52.0,29.74,NE,49,2.0,4.0,63,0.00,,,0.32,,2013-06-18 22:53:00,
2013-06-18 16:01:00,64.0,51.0,29.73,West,271,1.0,5.0,63,0.00,,,0.32,,2013-06-18 23:01:00,
2013-06-18 16:11:00,65.0,51.0,29.73,WNW,284,2.0,4.0,60,0.00,,,0.32,,2013-06-18 23:11:00,
2013-06-18 16:23:00,65.0,49.0,29.72,WSW,258,2.0,4.0,56,0.00,,,0.32,,2013-06-18 23:23:00,
2013-06-18 16:35:00,65.0,49.0,29.72,WSW,258,2.0,4.0,56,0.00,,,0.32,,2013-06-18 23:35:00,
2013-06-18 16:44:00,64.0,49.0,29.72,West,281,0.0,5.0,58,0.00,,,0.32,,2013-06-18 23:44:00,
2013-06-18 16:53:00,64.0,49.0,29.72,West,281,0.0,5.0,58,0.00,,,0.32,,2013-06-18 23:53:00,
2013-06-18 17:01:00,64.0,47.0,29.71,North,359,1.0,6.0,55,0.00,,,0.32,,2013-06-19 00:01:00,
2013-06-18 17:11:00,64.0,47.0,29.71,West,276,2.0,5.0,53,0.00,,,0.32,,2013-06-19 00:11:00,
2013-06-18 17:22:00,66.0,48.0,29.70,NNW,335,1.0,4.0,53,0.00,,,0.32,,2013-06-19 00:22:00,
2013-06-18 17:33:00,66.0,48.0,29.70,NNW,335,1.0,4.0,53,0.00,,,0.32,,2013-06-19 00:33:00,
2013-06-18 17:43:00,66.0,47.0,29.71,West,276,2.0,5.0,51,0.00,,,0.32,,2013-06-19 00:43:00,
2013-06-18 17:53:00,66.0,47.0,29.71,West,276,2.0,5.0,51,0.00,,,0.32,,2013-06-19 00:53:00,
2013-06-18 18:01:00,65.0,48.0,29.70,NW,320,2.0,4.0,54,0.00,,,0.32,,2013-06-19 01:01:00,
2013-06-18 18:11:00,64.0,47.0,29.70,SW,227,1.0,6.0,54,0.00,,,0.32,,2013-06-19 01:11:00,
2013-06-18 18:22:00,64.0,47.0,29.70,SW,227,1.0,6.0,54,0.00,,,0.32,,2013-06-19 01:22:00,
2013-06-18 18:32:00,64.0,47.0,29.70,SW,227,1.0,6.0,54,0.00,,,0.32,,2013-06-19 01:32:00,
2013-06-18 18:42:00,64.0,47.0,29.70,SW,227,1.0,6.0,54,0.00,,,0.32,,2013-06-19 01:42:00,
2013-06-18 18:53:00,64.0,47.0,29.70,SW,227,1.0,6.0,54,0.00,,,0.32,,2013-06-19 01:53:00,
2013-06-18 19:01:00,63.0,50.0,29.70,SW,221,3.0,6.0,63,0.00,,,0.32,,2013-06-19 02:01:00,
2013-06-18 19:11:00,63.0,50.0,29.70,SW,221,3.0,6.0,63,0.00,,,0.32,,2013-06-19 02:11:00,
2013-06-18 19:21:00,63.0,50.0,29.70,SW,221,3.0,6.0,63,0.00,,,0.32,,2013-06-19 02:21:00,
2013-06-18 19:32:00,63.0,50.0,29.70,SW,221,3.0,6.0,63,0.00,,,0.32,,2013-06-19 02:32:00,
2013-06-18 19:42:00,60.0,51.0,29.70,SW,215,2.0,5.0,72,0.00,,,0.32,,2013-06-19 02:42:00,
2013-06-18 19:52:00,60.0,51.0,29.69,SW,215,2.0,4.0,73,0.00,,,0.32,,2013-06-19 02:52:00,
2013-06-18 20:01:00,60.0,51.0,29.69,SW,215,2.0,4.0,73,0.00,,,0.32,,2013-06-19 03:01:00,
2013-06-18 20:11:00,60.0,51.0,29.69,SW,215,2.0,4.0,73,0.00,,,0.32,,2013-06-19 03:11:00,
2013-06-18 20:21:00,60.0,52.0,29.70,WSW,241,2.0,4.0,76,0.00,,,0.32,,2013-06-19 03:21:00,
2013-06-18 20:32:00,60.0,52.0,29.70,WSW,241,2.0,4.0,76,0.00,,,0.32,,2013-06-19 03:32:00,
2013-06-18 20:43:00,59.0,52.0,29.70,SW,227,5.0,7.0,77,0.00,,,0.32,,2013-06-19 03:43:00,
2013-06-18 20:52:00,58.0,51.0,29.70,SW,228,3.0,6.0,78,0.00,,,0.32,,2013-06-19 03:52:00,
2013-06-18 21:01:00,58.0,51.0,29.70,SW,228,3.0,6.0,78,0.00,,,0.32,,2013-06-19 04:01:00,
2013-06-18 21:11:00,58.0,52.0,29.70,WSW,250,3.0,6.0,79,0.00,,,0.32,,2013-06-19 04:11:00,
2013-06-18 21:22:00,58.0,52.0,29.70,WSW,250,3.0,6.0,79,0.00,,,0.32,,2013-06-19 04:22:00,
2013-06-18 21:32:00,58.0,52.0,29.71,WSW,243,4.0,6.0,80,0.00,,,0.32,,2013-06-19 04:32:00,
2013-06-18 21:42:00,58.0,52.0,29.71,WSW,243,4.0,6.0,80,0.00,,,0.32,,2013-06-19 04:42:00,
2013-06-18 21:52:00,58.0,52.0,29.71,WSW,243,4.0,6.0,80,0.00,,,0.32,,2013-06-19 04:52:00,
2013-06-18 22:01:00,58.0,52.0,29.71,WSW,243,4.0,6.0,80,0.00,,,0.32,,2013-06-19 05:01:00,
2013-06-18 22:11:00,57.0,52.0,29.72,SW,233,2.0,3.0,82,0.00,,,0.32,,2013-06-19 05:11:00,
2013-06-18 22:22:00,56.0,51.0,29.73,SW,232,1.0,2.0,83,0.00,,,0.32,,2013-06-19 05:22:00,
2013-06-18 22:32:00,56.0,51.0,29.73,SW,232,1.0,2.0,83,0.00,,,0.32,,2013-06-19 05:32:00,
2013-06-18 22:42:00,57.0,52.0,29.72,SW,234,1.0,2.0,82,0.00,,,0.32,,2013-06-19 05:42:00,
2013-06-18 22:52:00,56.0,51.0,29.70,WSW,253,1.0,3.0,82,0.00,,,0.32,,2013-06-19 05:52:00,
2013-06-18 23:01:00,56.0,51.0,29.70,WSW,253,1.0,3.0,82,0.00,,,0.32,,2013-06-19 06:01:00,
2013-06-18 23:11:00,56.0,51.0,29.71,SW,229,1.0,3.0,82,0.00,,,0.32,,2013-06-19 06:11:00,
2013-06-18 23:21:00,56.0,51.0,29.71,SW,229,1.0,3.0,82,0.00,,,0.32,,2013-06-19 06:21:00,
2013-06-18 23:33:00,56.0,51.0,29.70,SW,220,3.0,5.0,82,0.00,,,0.32,,2013-06-19 06:33:00,
2013-06-18 23:42:00,56.0,50.0,29.70,SSW,210,5.0,9.0,81,0.00,,,0.32,,2013-06-19 06:42:00,
2013-06-18 23:52:00,56.0,51.0,29.70,SSW,213,8.0,12.0,83,0.00,,,0.32,,2013-06-19 06:52:00,